createdAt,value
2019-01-27T00:00:31.033Z,99.90
2019-01-27T00:02:59.449Z,99.90
2019-01-27T00:05:27.954Z,99.90
2019-01-27T00:07:56.374Z,99.90
2019-01-27T00:10:24.872Z,99.90
2019-01-27T00:12:53.296Z,99.90
2019-01-27T00:15:22.321Z,99.90
2019-01-27T00:17:51.006Z,99.90
2019-01-27T00:20:22.179Z,99.90
2019-01-27T00:22:50.719Z,99.90
2019-01-27T00:25:19.157Z,99.90
2019-01-27T00:27:48.085Z,99.90
2019-01-27T00:30:24.165Z,99.90
2019-01-27T00:32:53.676Z,99.90
2019-01-27T00:35:22.461Z,99.90
2019-01-27T00:37:50.950Z,99.90
2019-01-27T00:40:19.616Z,99.90
2019-01-27T00:42:48.418Z,99.90
2019-01-27T00:45:18.945Z,99.90
2019-01-27T00:47:47.361Z,99.90
2019-01-27T00:50:19.901Z,99.90
2019-01-27T00:52:48.712Z,99.90
2019-01-27T00:55:24.168Z,99.80
2019-01-27T00:57:52.858Z,99.90
2019-01-27T01:00:24.038Z,99.80
2019-01-27T01:02:52.517Z,99.60
2019-01-27T01:05:21.442Z,99.40
2019-01-27T01:07:50.533Z,99.30
2019-01-27T01:10:23.546Z,99.40
2019-01-27T01:12:52.409Z,99.30
2019-01-27T01:15:22.076Z,99.30
2019-01-27T01:17:50.564Z,99.30
2019-01-27T01:20:22.870Z,99.40
2019-01-27T01:22:52.469Z,99.30
2019-01-27T01:25:22.938Z,99.30
2019-01-27T01:27:51.898Z,99.60
2019-01-27T01:30:26.037Z,99.30
2019-01-27T01:32:54.517Z,99.30
2019-01-27T01:35:23.285Z,99.30
2019-01-27T01:37:52.026Z,99.30
2019-01-27T01:40:20.870Z,99.30
2019-01-27T01:42:49.677Z,99.30
2019-01-27T01:45:29.211Z,99.70
2019-01-27T01:47:57.990Z,99.20
2019-01-27T01:50:26.678Z,99.10
2019-01-27T01:52:56.148Z,99.00
2019-01-27T01:55:24.985Z,99.00
2019-01-27T01:57:53.480Z,99.00
2019-01-27T02:00:24.904Z,99.10
2019-01-27T02:02:53.786Z,99.40
2019-01-27T02:05:22.697Z,99.30
2019-01-27T02:07:51.568Z,99.10
2019-01-27T02:10:21.830Z,99.10
2019-01-27T02:12:51.549Z,99.10
2019-01-27T02:15:32.020Z,98.90
2019-01-27T02:18:00.589Z,98.80
2019-01-27T02:20:29.077Z,98.50
2019-01-27T02:22:57.817Z,98.30
2019-01-27T02:25:26.233Z,98.00
2019-01-27T02:27:54.669Z,97.90
2019-01-27T02:30:23.422Z,97.60
2019-01-27T02:32:53.073Z,97.60
2019-01-27T02:35:21.494Z,97.50
2019-01-27T02:37:50.071Z,97.60
2019-01-27T02:40:18.481Z,97.50
2019-01-27T02:42:46.913Z,97.60
2019-01-27T02:45:17.126Z,97.50
2019-01-27T02:47:46.033Z,97.50
2019-01-27T02:50:14.594Z,97.30
2019-01-27T02:52:43.385Z,97.20
2019-01-27T02:55:11.873Z,97.10
2019-01-27T02:57:40.309Z,97.00
2019-01-27T03:00:11.959Z,97.30
2019-01-27T03:02:40.671Z,97.00
2019-01-27T03:05:11.842Z,97.10
2019-01-27T03:07:40.557Z,97.30
2019-01-27T03:10:14.950Z,97.20
2019-01-27T03:12:43.450Z,97.20
2019-01-27T03:15:13.345Z,97.10
2019-01-27T03:17:41.806Z,97.20
2019-01-27T03:20:14.452Z,97.10
2019-01-27T03:22:43.419Z,97.20
2019-01-27T03:25:18.454Z,97.10
2019-01-27T03:27:47.070Z,97.40
2019-01-27T03:30:18.424Z,97.40
2019-01-27T03:32:46.863Z,97.40
2019-01-27T03:35:15.413Z,97.40
2019-01-27T03:37:43.841Z,97.50
2019-01-27T03:40:15.341Z,97.50
2019-01-27T03:42:44.161Z,97.50
2019-01-27T03:45:17.844Z,97.50
2019-01-27T03:47:46.400Z,97.50
2019-01-27T03:50:19.185Z,97.50
2019-01-27T03:52:47.677Z,97.50
2019-01-27T03:55:21.476Z,97.50
2019-01-27T03:57:49.974Z,97.50
2019-01-27T04:00:22.974Z,97.50
2019-01-27T04:02:51.610Z,97.40
2019-01-27T04:05:20.866Z,97.40
2019-01-27T04:07:49.425Z,97.30
2019-01-27T04:10:23.217Z,97.00
2019-01-27T04:12:51.700Z,97.40
2019-01-27T04:15:20.206Z,97.30
2019-01-27T04:17:48.621Z,97.50
2019-01-27T04:20:19.666Z,97.30
2019-01-27T04:22:48.631Z,97.30
2019-01-27T04:25:17.307Z,97.10
2019-01-27T04:27:45.794Z,97.20
2019-01-27T04:30:24.466Z,97.10
2019-01-27T04:32:53.240Z,97.00
2019-01-27T04:35:21.685Z,97.00
2019-01-27T04:37:50.161Z,97.00
2019-01-27T04:40:23.562Z,97.10
2019-01-27T04:42:52.272Z,96.90
2019-01-27T04:45:24.889Z,96.90
2019-01-27T04:47:53.441Z,96.70
2019-01-27T04:50:21.940Z,96.70
2019-01-27T04:52:50.358Z,96.60
2019-01-27T04:55:19.912Z,96.30
2019-01-27T04:57:48.714Z,96.60
2019-01-27T05:00:20.537Z,96.50
2019-01-27T05:02:53.641Z,96.30
2019-01-27T05:05:22.215Z,96.30
2019-01-27T05:07:50.633Z,96.30
2019-01-27T05:10:19.385Z,96.50
2019-01-27T05:12:47.805Z,96.50
2019-01-27T05:15:21.161Z,96.40
2019-01-27T05:17:49.572Z,96.40
2019-01-27T05:20:18.018Z,96.60
2019-01-27T05:22:46.661Z,96.60
2019-01-27T05:25:16.805Z,96.50
2019-01-27T05:27:45.221Z,96.40
2019-01-27T05:30:19.846Z,96.30
2019-01-27T05:32:48.710Z,96.20
2019-01-27T05:35:17.608Z,96.30
2019-01-27T05:37:46.353Z,96.30
2019-01-27T05:40:19.080Z,96.60
2019-01-27T05:42:47.501Z,96.10
2019-01-27T05:45:17.278Z,96.10
2019-01-27T05:47:45.830Z,95.90
2019-01-27T05:50:16.681Z,95.90
2019-01-27T05:52:45.165Z,95.80
2019-01-27T05:55:20.888Z,95.70
2019-01-27T05:57:49.694Z,95.60
2019-01-27T06:00:40.700Z,95.60
2019-01-27T06:03:09.397Z,95.60
2019-01-27T06:05:37.832Z,95.70
2019-01-27T06:08:06.251Z,95.60
2019-01-27T06:10:34.948Z,95.60
2019-01-27T06:13:03.442Z,95.70
2019-01-27T06:15:32.730Z,95.60
2019-01-27T06:18:01.140Z,95.70
2019-01-27T06:20:29.918Z,95.60
2019-01-27T06:22:58.685Z,95.50
2019-01-27T06:25:27.125Z,95.40
2019-01-27T06:27:55.953Z,95.50
2019-01-27T06:30:28.549Z,95.50
2019-01-27T06:33:10.893Z,95.10
2019-01-27T06:35:39.999Z,94.90
2019-01-27T06:38:08.533Z,95.00
2019-01-27T06:40:36.953Z,95.00
2019-01-27T06:43:05.786Z,95.10
2019-01-27T06:45:34.204Z,95.00
2019-01-27T06:48:02.887Z,95.00
2019-01-27T06:50:31.301Z,94.80
2019-01-27T06:53:00.126Z,94.70
2019-01-27T06:55:28.541Z,94.60
2019-01-27T06:57:56.973Z,95.00
2019-01-27T07:00:46.352Z,95.40
2019-01-27T07:03:25.913Z,95.80
2019-01-27T07:06:01.877Z,96.10
2019-01-27T07:08:38.035Z,96.50
2019-01-27T07:11:11.012Z,97.00
2019-01-27T07:13:41.077Z,97.10
2019-01-27T07:16:14.108Z,97.40
2019-01-27T07:18:56.077Z,97.50
2019-01-27T07:21:38.158Z,97.60
2019-01-27T07:24:11.176Z,97.80
2019-01-27T07:26:41.513Z,97.80
2019-01-27T07:29:17.082Z,97.80
2019-01-27T07:31:56.319Z,97.90
2019-01-27T07:34:35.131Z,98.20
2019-01-27T07:37:23.716Z,98.00
2019-01-27T07:39:53.890Z,98.10
2019-01-27T07:42:24.329Z,98.50
2019-01-27T07:45:10.950Z,98.60
2019-01-27T07:47:43.994Z,98.70
2019-01-27T07:50:18.405Z,98.70
2019-01-27T07:52:57.454Z,98.90
2019-01-27T07:55:36.606Z,98.80
2019-01-27T07:58:07.201Z,99.40
2019-01-27T08:00:37.265Z,99.20
2019-01-27T08:03:16.658Z,99.40
2019-01-27T08:05:52.957Z,99.40
2019-01-27T08:08:31.646Z,99.80
2019-01-27T08:11:07.943Z,99.80
2019-01-27T08:13:43.840Z,99.40
2019-01-27T08:16:23.218Z,99.40
2019-01-27T08:19:02.345Z,99.50
2019-01-27T08:21:44.509Z,99.00
2019-01-27T08:24:14.994Z,99.10
2019-01-27T08:26:45.119Z,99.40
2019-01-27T08:29:15.195Z,99.50
2019-01-27T08:31:45.290Z,99.40
2019-01-27T08:34:33.582Z,99.20
2019-01-27T08:37:15.605Z,99.00
2019-01-27T08:39:57.701Z,99.20
2019-01-27T08:42:27.760Z,99.10
2019-01-27T08:45:09.809Z,98.80
2019-01-27T08:47:38.227Z,98.40
2019-01-27T08:50:09.739Z,98.20
2019-01-27T08:52:38.159Z,98.10
2019-01-27T08:55:09.911Z,97.90
2019-01-27T08:57:38.578Z,97.80
2019-01-27T09:00:12.908Z,97.80
2019-01-27T09:02:51.712Z,97.70
2019-01-27T09:05:25.341Z,97.30
2019-01-27T09:08:13.829Z,97.40
2019-01-27T09:10:43.968Z,96.90
2019-01-27T09:13:19.983Z,96.50
2019-01-27T09:15:59.405Z,96.10
2019-01-27T09:18:35.866Z,96.50
2019-01-27T09:21:09.237Z,96.10
2019-01-27T09:23:39.585Z,96.10
2019-01-27T09:26:18.549Z,95.90
2019-01-27T09:28:54.974Z,95.80
2019-01-27T09:31:25.058Z,95.70
2019-01-27T09:34:13.609Z,95.60
2019-01-27T09:36:52.609Z,95.50
2019-01-27T09:39:40.778Z,95.80
2019-01-27T09:42:26.497Z,95.20
2019-01-27T09:45:02.557Z,94.70
2019-01-27T09:47:38.720Z,94.70
2019-01-27T09:50:11.324Z,94.90
2019-01-27T09:52:47.184Z,94.80
2019-01-27T09:55:23.098Z,94.40
2019-01-27T09:57:59.166Z,94.40
2019-01-27T10:00:29.598Z,94.30
2019-01-27T10:03:05.646Z,94.30
2019-01-27T10:05:41.709Z,93.70
2019-01-27T10:08:15.109Z,94.00
2019-01-27T10:10:45.181Z,93.70
2019-01-27T10:13:15.242Z,93.70
2019-01-27T10:15:51.326Z,93.40
2019-01-27T10:18:36.989Z,93.20
2019-01-27T10:21:16.338Z,92.90
2019-01-27T10:23:49.105Z,92.80
2019-01-27T10:26:19.537Z,92.60
2019-01-27T10:28:55.902Z,92.60
2019-01-27T10:31:37.949Z,91.90
2019-01-27T10:34:08.760Z,91.70
2019-01-27T10:36:41.953Z,91.80
2019-01-27T10:39:17.765Z,91.40
2019-01-27T10:41:48.219Z,90.80
2019-01-27T10:44:18.282Z,90.60
2019-01-27T10:46:49.296Z,90.80
2019-01-27T10:49:25.577Z,90.70
2019-01-27T10:51:55.897Z,90.50
2019-01-27T10:54:31.462Z,90.10
2019-01-27T10:57:01.522Z,91.00
2019-01-27T10:59:34.541Z,90.40
2019-01-27T11:02:20.934Z,90.50
2019-01-27T11:04:56.725Z,90.20
2019-01-27T11:07:32.537Z,88.00
2019-01-27T11:10:08.886Z,85.30
2019-01-27T11:12:51.197Z,85.70
2019-01-27T11:15:24.462Z,87.50
2019-01-27T11:18:00.957Z,87.20
2019-01-27T11:20:39.932Z,84.30
2019-01-27T11:23:05.905Z,84.80
2019-01-27T11:25:42.180Z,84.00
2019-01-27T11:28:14.746Z,85.70
2019-01-27T11:30:44.817Z,86.60
2019-01-27T11:33:15.198Z,86.90
2019-01-27T11:35:48.540Z,87.40
2019-01-27T11:38:18.742Z,86.70
2019-01-27T11:40:49.138Z,82.70
2019-01-27T11:43:19.209Z,83.00
2019-01-27T11:45:58.805Z,84.00
2019-01-27T11:48:29.229Z,80.60
2019-01-27T11:50:59.341Z,75.80
2019-01-27T11:53:27.777Z,77.20
2019-01-27T11:55:56.261Z,75.50
2019-01-27T11:58:24.760Z,72.90
2019-01-27T12:00:54.313Z,69.70
2019-01-27T12:03:22.808Z,68.10
2019-01-27T12:05:51.229Z,68.10
2019-01-27T12:08:19.661Z,71.40
2019-01-27T12:10:48.081Z,72.00
2019-01-27T12:13:16.514Z,71.20
2019-01-27T12:15:45.293Z,72.60
2019-01-27T12:18:14.989Z,73.60
2019-01-27T12:20:43.401Z,72.70
2019-01-27T12:23:11.829Z,71.20
2019-01-27T12:25:40.320Z,71.10
2019-01-27T12:28:09.085Z,71.80
2019-01-27T12:30:37.497Z,71.90
2019-01-27T12:33:05.933Z,71.70
2019-01-27T12:35:34.415Z,68.20
2019-01-27T12:38:02.845Z,60.90
2019-01-27T12:40:31.537Z,56.90
2019-01-27T12:43:00.326Z,54.70
2019-01-27T12:45:28.742Z,54.80
2019-01-27T12:47:57.461Z,48.70
2019-01-27T12:50:25.953Z,52.30
2019-01-27T12:52:54.517Z,52.40
2019-01-27T12:55:22.962Z,51.30
2019-01-27T12:57:51.853Z,46.30
2019-01-27T13:00:23.414Z,45.50
2019-01-27T13:02:51.920Z,48.20
2019-01-27T13:05:20.654Z,48.30
2019-01-27T13:07:49.064Z,52.90
2019-01-27T13:10:17.873Z,51.60
2019-01-27T13:12:46.306Z,54.40
2019-01-27T13:15:17.725Z,50.90
2019-01-27T13:17:46.652Z,50.20
2019-01-27T13:20:15.684Z,50.50
2019-01-27T13:22:44.474Z,54.40
2019-01-27T13:25:18.213Z,54.30
2019-01-27T13:27:47.026Z,54.20
2019-01-27T13:30:21.289Z,55.30
2019-01-27T13:32:49.868Z,52.10
2019-01-27T13:35:18.635Z,48.40
2019-01-27T13:37:49.985Z,45.90
2019-01-27T13:40:21.030Z,46.40
2019-01-27T13:42:49.809Z,48.50
2019-01-27T13:45:21.193Z,51.20
2019-01-27T13:47:49.607Z,52.00
2019-01-27T13:50:18.172Z,53.00
2019-01-27T13:52:47.301Z,51.40
2019-01-27T13:55:19.290Z,51.50
2019-01-27T13:57:47.781Z,52.70
2019-01-27T14:00:24.761Z,54.90
2019-01-27T14:02:53.334Z,55.70
2019-01-27T14:05:22.026Z,57.70
2019-01-27T14:07:50.782Z,57.70
2019-01-27T14:10:22.030Z,58.10
2019-01-27T14:12:50.535Z,57.40
2019-01-27T14:15:24.838Z,57.80
2019-01-27T14:17:53.269Z,58.60
2019-01-27T14:20:22.074Z,58.50
2019-01-27T14:22:50.505Z,56.50
2019-01-27T14:25:24.596Z,54.10
2019-01-27T14:27:53.173Z,51.30
2019-01-27T14:30:33.565Z,47.10
2019-01-27T14:33:02.005Z,45.70
2019-01-27T14:35:30.445Z,42.50
2019-01-27T14:37:59.185Z,45.30
2019-01-27T14:40:29.757Z,45.40
2019-01-27T14:43:00.800Z,45.90
2019-01-27T14:45:34.097Z,46.50
2019-01-27T14:48:03.074Z,47.90
2019-01-27T14:50:34.458Z,48.30
2019-01-27T14:53:03.408Z,50.00
2019-01-27T14:55:31.927Z,50.00
2019-01-27T14:58:00.398Z,50.90
2019-01-27T15:00:36.229Z,52.70
2019-01-27T15:03:02.125Z,53.50
2019-01-27T15:05:30.918Z,53.40
2019-01-27T15:08:00.436Z,53.30
2019-01-27T15:10:29.019Z,53.30
2019-01-27T15:12:57.802Z,51.90
2019-01-27T15:15:26.474Z,52.60
2019-01-27T15:17:55.043Z,53.30
2019-01-27T15:20:37.913Z,53.30
2019-01-27T15:23:06.350Z,53.70
2019-01-27T15:25:34.761Z,54.00
2019-01-27T15:28:03.197Z,53.40
2019-01-27T15:30:36.308Z,53.30
2019-01-27T15:33:06.179Z,52.30
2019-01-27T15:35:34.948Z,52.30
2019-01-27T15:38:03.810Z,52.90
2019-01-27T15:40:32.590Z,53.10
2019-01-27T15:43:01.030Z,54.40
2019-01-27T15:45:31.280Z,55.00
2019-01-27T15:47:59.990Z,55.80
2019-01-27T15:50:36.293Z,55.40
2019-01-27T15:53:06.165Z,56.10
2019-01-27T15:55:37.303Z,56.40
2019-01-27T15:58:05.858Z,55.40
2019-01-27T16:00:34.357Z,55.80
2019-01-27T16:03:03.134Z,55.60
2019-01-27T16:05:31.793Z,56.30
2019-01-27T16:08:00.567Z,56.70
2019-01-27T16:10:29.179Z,56.10
2019-01-27T16:12:58.506Z,56.40
2019-01-27T16:15:35.397Z,56.30
2019-01-27T16:18:04.768Z,56.40
2019-01-27T16:20:33.489Z,56.30
2019-01-27T16:23:20.157Z,56.70
2019-01-27T16:25:48.766Z,56.50
2019-01-27T16:28:17.489Z,57.40
2019-01-27T16:30:59.624Z,57.60
2019-01-27T16:33:29.756Z,57.80
2019-01-27T16:35:58.473Z,57.40
2019-01-27T16:38:27.270Z,57.90
2019-01-27T16:40:55.697Z,57.70
2019-01-27T16:43:24.126Z,57.40
2019-01-27T16:45:52.918Z,58.60
2019-01-27T16:48:21.549Z,57.80
2019-01-27T16:50:49.961Z,57.90
2019-01-27T16:53:18.722Z,58.10
2019-01-27T16:55:47.166Z,58.30
2019-01-27T16:58:15.938Z,57.60
2019-01-27T17:00:44.730Z,58.00
2019-01-27T17:03:13.518Z,58.20
2019-01-27T17:05:41.933Z,58.00
2019-01-27T17:08:10.908Z,58.40
2019-01-27T17:10:39.676Z,58.60
2019-01-27T17:13:08.244Z,58.50
2019-01-27T17:15:39.417Z,58.10
2019-01-27T17:18:07.920Z,59.00
2019-01-27T17:20:36.679Z,58.70
2019-01-27T17:23:05.109Z,58.30
2019-01-27T17:25:33.548Z,58.70
2019-01-27T17:28:01.962Z,59.60
2019-01-27T17:30:30.718Z,59.90
2019-01-27T17:32:59.491Z,59.20
2019-01-27T17:35:28.585Z,60.30
2019-01-27T17:37:57.382Z,60.40
2019-01-27T17:40:25.813Z,61.40
2019-01-27T17:42:54.501Z,61.50
2019-01-27T17:45:24.773Z,61.60
2019-01-27T17:47:53.260Z,61.40
2019-01-27T17:50:22.821Z,61.40
2019-01-27T17:52:51.393Z,61.40
2019-01-27T17:55:41.839Z,61.60
2019-01-27T17:58:34.606Z,61.30
2019-01-27T18:01:13.978Z,62.40
2019-01-27T18:03:50.065Z,62.30
2019-01-27T18:06:23.487Z,63.10
2019-01-27T18:09:00.002Z,64.00
2019-01-27T18:11:32.786Z,64.20
2019-01-27T18:14:02.865Z,64.90
2019-01-27T18:16:31.298Z,65.70
2019-01-27T18:18:59.719Z,64.80
2019-01-27T18:21:28.152Z,63.90
2019-01-27T18:23:56.601Z,64.60
2019-01-27T18:26:25.181Z,64.30
2019-01-27T18:28:53.866Z,63.60
2019-01-27T18:31:22.633Z,63.10
2019-01-27T18:33:51.050Z,63.00
2019-01-27T18:36:19.484Z,63.00
2019-01-27T18:38:47.913Z,64.40
2019-01-27T18:41:16.411Z,65.10
2019-01-27T18:43:44.993Z,65.20
2019-01-27T18:46:13.606Z,65.60
2019-01-27T18:48:44.954Z,66.50
2019-01-27T18:51:13.457Z,66.40
2019-01-27T18:53:55.742Z,67.10
2019-01-27T18:56:28.738Z,66.90
2019-01-27T18:58:58.804Z,69.10
2019-01-27T19:01:45.305Z,69.10
2019-01-27T19:04:23.858Z,69.10
2019-01-27T19:07:10.113Z,69.10
2019-01-27T19:09:42.965Z,69.10
2019-01-27T19:12:13.042Z,69.80
2019-01-27T19:14:59.597Z,70.30
2019-01-27T19:17:32.382Z,71.50
2019-01-27T19:20:02.461Z,73.60
2019-01-27T19:22:32.830Z,73.20
2019-01-27T19:25:05.925Z,73.00
2019-01-27T19:27:38.902Z,72.80
2019-01-27T19:30:26.347Z,73.00
2019-01-27T19:33:05.633Z,73.00
2019-01-27T19:35:51.932Z,72.80
2019-01-27T19:38:31.086Z,72.90
2019-01-27T19:41:07.159Z,73.40
2019-01-27T19:43:40.254Z,73.70
2019-01-27T19:46:26.941Z,74.00
2019-01-27T19:48:57.018Z,75.10
2019-01-27T19:51:27.109Z,76.20
2019-01-27T19:53:57.182Z,75.40
2019-01-27T19:56:30.620Z,75.70
2019-01-27T19:59:07.187Z,74.90
2019-01-27T20:01:40.206Z,75.20
2019-01-27T20:04:26.803Z,75.10
2019-01-27T20:06:57.189Z,74.70
2019-01-27T20:09:27.639Z,74.50
2019-01-27T20:12:00.446Z,75.60
2019-01-27T20:14:46.757Z,76.00
2019-01-27T20:17:16.838Z,76.20
2019-01-27T20:19:49.621Z,76.70
2019-01-27T20:22:31.906Z,77.90
2019-01-27T20:25:17.695Z,77.90
2019-01-27T20:27:53.497Z,77.90
2019-01-27T20:30:26.641Z,77.90
2019-01-27T20:32:59.469Z,77.90
2019-01-27T20:35:29.629Z,78.50
2019-01-27T20:37:59.970Z,77.90
2019-01-27T20:40:36.213Z,78.60
2019-01-27T20:43:06.882Z,78.60
2019-01-27T20:45:36.936Z,79.00
2019-01-27T20:48:16.277Z,79.10
2019-01-27T20:50:49.615Z,80.90
2019-01-27T20:53:31.645Z,81.10
2019-01-27T20:56:10.976Z,81.00
2019-01-27T20:58:41.053Z,81.10
2019-01-27T21:01:16.564Z,83.20
2019-01-27T21:03:46.946Z,83.80
2019-01-27T21:06:19.853Z,83.40
2019-01-27T21:08:49.925Z,86.10
2019-01-27T21:11:35.949Z,86.70
2019-01-27T21:14:18.100Z,86.80
2019-01-27T21:16:57.253Z,86.70
2019-01-27T21:19:30.207Z,86.70
2019-01-27T21:21:58.646Z,86.80
2019-01-27T21:24:27.081Z,87.70
2019-01-27T21:26:55.502Z,88.30
2019-01-27T21:29:23.937Z,89.20
2019-01-27T21:31:52.365Z,90.10
2019-01-27T21:34:20.800Z,90.60
2019-01-27T21:36:49.221Z,91.00
2019-01-27T21:39:17.653Z,91.60
2019-01-27T21:41:46.385Z,92.30
2019-01-27T21:44:14.847Z,92.40
2019-01-27T21:46:43.657Z,92.60
2019-01-27T21:49:12.461Z,93.10
2019-01-27T21:51:41.236Z,93.60
2019-01-27T21:54:09.921Z,94.00
2019-01-27T21:56:38.345Z,94.10
2019-01-27T21:59:06.846Z,94.30
2019-01-27T22:01:35.257Z,94.40
2019-01-27T22:04:03.766Z,94.60
2019-01-27T22:06:34.019Z,95.00
2019-01-27T22:09:03.629Z,95.00
2019-01-27T22:11:32.045Z,95.30
2019-01-27T22:14:00.484Z,95.90
2019-01-27T22:16:28.906Z,96.20
2019-01-27T22:18:57.336Z,96.20
2019-01-27T22:21:25.752Z,96.20
2019-01-27T22:23:54.471Z,96.50
2019-01-27T22:26:23.154Z,97.10
2019-01-27T22:28:51.937Z,97.50
2019-01-27T22:31:20.361Z,98.00
2019-01-27T22:33:48.797Z,98.40
2019-01-27T22:36:17.608Z,99.00
2019-01-27T22:38:46.383Z,99.40
2019-01-27T22:41:15.070Z,99.80
2019-01-27T22:43:43.862Z,99.80
2019-01-27T22:46:12.285Z,99.80
2019-01-27T22:48:40.721Z,99.80
2019-01-27T22:51:09.141Z,99.70
2019-01-27T22:53:37.582Z,99.80
2019-01-27T22:56:06.004Z,99.70
2019-01-27T22:58:34.434Z,99.70
2019-01-27T23:01:05.084Z,99.20
2019-01-27T23:03:33.761Z,99.10
2019-01-27T23:06:02.265Z,99.10
2019-01-27T23:08:30.673Z,98.90
2019-01-27T23:10:59.113Z,98.80
2019-01-27T23:13:27.526Z,98.90
2019-01-27T23:15:55.957Z,98.90
2019-01-27T23:18:24.646Z,99.10
2019-01-27T23:20:53.105Z,99.00
2019-01-27T23:23:21.809Z,98.70
2019-01-27T23:25:50.528Z,98.10
2019-01-27T23:28:19.149Z,98.20
2019-01-27T23:30:47.643Z,97.90
2019-01-27T23:33:16.066Z,97.30
2019-01-27T23:35:44.485Z,97.70
2019-01-27T23:38:12.921Z,96.20
2019-01-27T23:40:41.699Z,96.20
2019-01-27T23:43:10.382Z,95.90
2019-01-27T23:45:38.805Z,95.30
2019-01-27T23:48:07.568Z,95.30
2019-01-27T23:50:36.288Z,94.40
2019-01-27T23:53:05.033Z,95.00
2019-01-27T23:55:33.717Z,95.10
2019-01-27T23:58:02.211Z,95.30
